createdAt,value
2023-01-12T00:01:59.359Z,4.12
2023-01-12T00:04:56.127Z,4.12
2023-01-12T00:07:52.858Z,4.17
2023-01-12T00:10:49.610Z,4.16
2023-01-12T00:13:46.400Z,4.14
2023-01-12T00:16:43.261Z,4.07
2023-01-12T00:19:40.156Z,4.10
2023-01-12T00:22:36.948Z,4.06
2023-01-12T00:25:33.673Z,4.06
2023-01-12T00:28:30.425Z,4.04
2023-01-12T00:31:27.202Z,4.04
2023-01-12T00:34:24.687Z,4.04
2023-01-12T00:37:21.429Z,4.04
2023-01-12T00:40:18.162Z,4.07
2023-01-12T00:43:33.368Z,4.16
2023-01-12T00:46:31.177Z,4.10
2023-01-12T00:49:27.934Z,4.10
2023-01-12T00:52:30.768Z,4.08
2023-01-12T00:55:28.030Z,4.08
2023-01-12T00:58:24.813Z,4.08
2023-01-12T01:01:21.687Z,4.17
2023-01-12T01:04:18.511Z,4.15
2023-01-12T01:07:16.134Z,4.15
2023-01-12T01:10:14.077Z,4.14
2023-01-12T01:13:10.845Z,4.08
2023-01-12T01:16:08.842Z,4.11
2023-01-12T01:19:05.940Z,4.19
2023-01-12T01:22:02.761Z,4.14
2023-01-12T01:24:59.489Z,4.15
2023-01-12T01:27:56.249Z,4.17
2023-01-12T01:30:53.091Z,4.17
2023-01-12T01:33:51.000Z,4.14
2023-01-12T01:36:47.753Z,4.16
2023-01-12T01:39:44.471Z,4.12
2023-01-12T01:42:41.260Z,4.14
2023-01-12T01:45:38.000Z,4.10
2023-01-12T01:48:37.003Z,4.06
2023-01-12T01:51:33.877Z,4.08
2023-01-12T01:54:33.523Z,4.06
2023-01-12T01:57:42.142Z,4.10
2023-01-12T02:00:40.245Z,4.14
2023-01-12T02:03:37.852Z,4.13
2023-01-12T02:06:34.602Z,4.14
2023-01-12T02:09:31.728Z,4.12
2023-01-12T02:12:46.798Z,4.09
2023-01-12T02:16:26.219Z,4.10
2023-01-12T02:19:50.044Z,4.07
2023-01-12T02:23:20.735Z,4.14
2023-01-12T02:26:32.467Z,4.04
2023-01-12T02:29:41.302Z,4.08
2023-01-12T02:32:59.955Z,4.10
2023-01-12T02:36:11.823Z,4.17
2023-01-12T02:39:19.380Z,4.15
2023-01-12T02:42:39.567Z,4.17
2023-01-12T02:45:47.801Z,4.16
2023-01-12T02:48:55.947Z,4.16
2023-01-12T02:51:57.146Z,4.18
2023-01-12T02:54:55.136Z,4.19
2023-01-12T02:57:53.609Z,4.20
2023-01-12T03:00:54.368Z,4.19
2023-01-12T03:03:51.897Z,4.19
2023-01-12T03:06:51.437Z,4.15
2023-01-12T03:09:56.215Z,4.14
2023-01-12T03:12:55.046Z,4.20
2023-01-12T03:15:55.265Z,4.19
2023-01-12T03:19:06.077Z,4.22
2023-01-12T03:22:09.114Z,4.25
2023-01-12T03:25:10.316Z,4.28
2023-01-12T03:28:08.275Z,4.26
2023-01-12T03:31:11.776Z,4.24
2023-01-12T03:34:09.499Z,4.18
2023-01-12T03:37:44.542Z,4.20
2023-01-12T03:40:46.586Z,4.23
2023-01-12T03:43:49.839Z,4.14
2023-01-12T03:47:03.282Z,4.22
2023-01-12T03:50:05.208Z,4.14
2023-01-12T03:53:02.985Z,4.16
2023-01-12T03:56:04.107Z,4.22
2023-01-12T03:59:00.952Z,4.17
2023-01-12T04:01:57.775Z,4.22
2023-01-12T04:04:54.541Z,4.16
2023-01-12T04:07:51.291Z,4.16
2023-01-12T04:10:48.057Z,4.14
2023-01-12T04:13:44.801Z,4.11
2023-01-12T04:16:41.617Z,4.16
2023-01-12T04:19:38.385Z,4.12
2023-01-12T04:22:44.167Z,4.11
2023-01-12T04:25:40.910Z,4.14
2023-01-12T04:28:37.668Z,4.16
2023-01-12T04:31:34.453Z,4.19
2023-01-12T04:34:31.219Z,4.17
2023-01-12T04:37:27.997Z,4.17
2023-01-12T04:40:25.069Z,4.22
2023-01-12T04:43:21.834Z,4.19
2023-01-12T04:46:18.663Z,4.25
2023-01-12T04:49:15.985Z,4.26
2023-01-12T04:52:12.727Z,4.24
2023-01-12T04:55:09.638Z,4.28
2023-01-12T04:58:06.917Z,4.28
2023-01-12T05:01:11.005Z,4.33
2023-01-12T05:04:08.683Z,4.34
2023-01-12T05:07:05.508Z,4.39
2023-01-12T05:10:21.133Z,4.38
2023-01-12T05:13:17.964Z,4.34
2023-01-12T05:16:17.108Z,4.39
2023-01-12T05:19:14.031Z,4.43
2023-01-12T05:22:10.807Z,4.43
2023-01-12T05:25:07.980Z,4.42
2023-01-12T05:28:04.803Z,4.44
2023-01-12T05:31:06.869Z,4.41
2023-01-12T05:34:03.852Z,4.50
2023-01-12T05:37:00.655Z,4.50
2023-01-12T05:39:57.787Z,4.52
2023-01-12T05:43:12.891Z,4.53
2023-01-12T05:46:09.704Z,4.47
2023-01-12T05:49:06.462Z,4.48
2023-01-12T05:52:03.226Z,4.50
2023-01-12T05:54:59.989Z,4.53
2023-01-12T05:57:56.777Z,4.48
2023-01-12T06:00:53.532Z,4.51
2023-01-12T06:03:51.871Z,4.55
2023-01-12T06:06:48.890Z,4.50
2023-01-12T06:09:45.639Z,4.51
2023-01-12T06:13:01.057Z,4.50
2023-01-12T06:16:05.137Z,4.54
2023-01-12T06:19:02.101Z,4.57
2023-01-12T06:22:01.747Z,4.50
2023-01-12T06:24:58.689Z,4.59
2023-01-12T06:27:56.258Z,4.53
2023-01-12T06:31:00.368Z,4.56
2023-01-12T06:33:57.123Z,4.68
2023-01-12T06:36:53.921Z,4.62
2023-01-12T06:39:50.857Z,4.54
2023-01-12T06:42:47.629Z,4.60
2023-01-12T06:45:45.068Z,4.66
2023-01-12T06:48:41.812Z,4.68
2023-01-12T06:51:38.561Z,4.73
2023-01-12T06:54:35.359Z,4.73
2023-01-12T06:57:32.137Z,4.69
2023-01-12T07:00:29.229Z,4.65
2023-01-12T07:03:26.055Z,4.75
2023-01-12T07:06:22.816Z,4.69
2023-01-12T07:09:19.541Z,4.66
2023-01-12T07:12:16.302Z,4.64
2023-01-12T07:15:14.622Z,4.72
2023-01-12T07:18:11.571Z,4.73
2023-01-12T07:21:09.528Z,4.64
2023-01-12T07:24:06.546Z,4.62
2023-01-12T07:27:03.376Z,4.65
2023-01-12T07:30:00.150Z,4.68
2023-01-12T07:33:08.702Z,4.68
2023-01-12T07:36:05.777Z,4.72
2023-01-12T07:39:02.603Z,4.67
2023-01-12T07:42:18.552Z,4.64
2023-01-12T07:45:15.365Z,4.73
2023-01-12T07:48:12.145Z,4.72
2023-01-12T07:51:08.902Z,4.74
2023-01-12T07:54:05.688Z,4.66
2023-01-12T07:57:02.661Z,4.70
2023-01-12T07:59:59.428Z,4.77
2023-01-12T08:03:02.751Z,4.73
2023-01-12T08:06:00.604Z,4.72
2023-01-12T08:08:57.361Z,4.73
2023-01-12T08:11:54.561Z,4.73
2023-01-12T08:14:51.572Z,4.78
2023-01-12T08:17:57.005Z,4.78
2023-01-12T08:20:57.133Z,4.79
2023-01-12T08:23:58.841Z,4.80
2023-01-12T08:26:58.622Z,4.81
2023-01-12T08:29:58.606Z,4.71
2023-01-12T08:32:57.722Z,4.72
2023-01-12T08:35:54.735Z,4.81
2023-01-12T08:38:51.606Z,4.78
2023-01-12T08:41:48.356Z,4.76
2023-01-12T08:44:45.141Z,4.75
2023-01-12T08:47:44.353Z,4.75
2023-01-12T08:50:41.079Z,4.68
2023-01-12T08:53:37.852Z,4.71
2023-01-12T08:56:34.976Z,4.65
2023-01-12T08:59:31.790Z,4.72
2023-01-12T09:02:29.606Z,4.72
2023-01-12T09:05:27.200Z,4.73
2023-01-12T09:08:23.938Z,4.69
2023-01-12T09:11:20.734Z,4.67
2023-01-12T09:14:17.670Z,4.77
2023-01-12T09:17:14.528Z,4.74
2023-01-12T09:20:11.881Z,4.80
2023-01-12T09:23:08.661Z,4.81
2023-01-12T09:26:10.966Z,4.82
2023-01-12T09:29:08.375Z,4.81
2023-01-12T09:32:05.412Z,4.85
2023-01-12T09:35:02.747Z,4.83
2023-01-12T09:38:00.059Z,4.87
2023-01-12T09:41:02.054Z,4.90
2023-01-12T09:44:17.472Z,4.84
2023-01-12T09:47:21.371Z,4.84
2023-01-12T09:50:39.547Z,4.94
2023-01-12T09:53:38.468Z,4.89
2023-01-12T09:56:40.628Z,4.86
2023-01-12T09:59:52.561Z,4.87
2023-01-12T10:03:09.509Z,4.81
2023-01-12T10:06:08.890Z,4.89
2023-01-12T10:09:09.910Z,4.81
2023-01-12T10:12:37.124Z,4.87
2023-01-12T10:15:46.316Z,4.91
2023-01-12T10:18:47.726Z,4.93
2023-01-12T10:21:44.523Z,4.97
2023-01-12T10:24:41.870Z,4.95
2023-01-12T10:27:41.837Z,4.98
2023-01-12T10:30:40.641Z,4.97
2023-01-12T10:33:37.404Z,4.95
2023-01-12T10:36:44.394Z,4.98
2023-01-12T10:39:43.552Z,4.96
2023-01-12T10:43:15.665Z,4.95
2023-01-12T10:46:18.218Z,5.00
2023-01-12T10:49:23.416Z,5.00
2023-01-12T10:52:38.507Z,4.98
2023-01-12T10:55:40.054Z,5.01
2023-01-12T10:58:36.823Z,5.01
2023-01-12T11:01:59.127Z,4.99
2023-01-12T11:04:55.967Z,5.02
2023-01-12T11:07:52.721Z,5.08
2023-01-12T11:10:49.672Z,5.04
2023-01-12T11:13:46.500Z,5.12
2023-01-12T11:16:50.205Z,5.09
2023-01-12T11:19:47.756Z,5.09
2023-01-12T11:22:45.469Z,5.05
2023-01-12T11:25:46.928Z,5.11
2023-01-12T11:28:48.184Z,5.13
2023-01-12T11:31:46.471Z,5.21
2023-01-12T11:34:55.652Z,5.22
2023-01-12T11:37:54.935Z,5.16
2023-01-12T11:40:53.434Z,5.33
2023-01-12T11:44:02.058Z,5.24
2023-01-12T11:47:07.391Z,5.24
2023-01-12T11:50:11.948Z,5.28
2023-01-12T11:53:19.475Z,5.22
2023-01-12T11:56:28.890Z,5.23
2023-01-12T11:59:27.275Z,5.26
2023-01-12T12:02:37.056Z,5.37
2023-01-12T12:05:56.242Z,5.29
2023-01-12T12:09:03.830Z,5.29
2023-01-12T12:12:03.797Z,5.36
2023-01-12T12:15:22.662Z,5.34
2023-01-12T12:18:33.671Z,5.34
2023-01-12T12:21:30.303Z,5.42
2023-01-12T12:24:38.065Z,5.30
2023-01-12T12:28:05.181Z,5.42
2023-01-12T12:31:23.587Z,5.46
2023-01-12T12:34:43.616Z,5.45
2023-01-12T12:37:53.158Z,5.46
2023-01-12T12:41:23.891Z,5.54
2023-01-12T12:44:39.295Z,5.49
2023-01-12T12:48:08.266Z,5.51
2023-01-12T12:51:08.067Z,5.53
2023-01-12T12:54:06.896Z,5.66
2023-01-12T12:57:04.486Z,5.62
2023-01-12T13:00:01.379Z,5.66
2023-01-12T13:02:58.834Z,5.63
2023-01-12T13:06:19.008Z,5.66
2023-01-12T13:09:15.648Z,5.65
2023-01-12T13:12:33.456Z,5.71
2023-01-12T13:15:36.680Z,5.73
2023-01-12T13:19:03.770Z,5.77
2023-01-12T13:22:32.504Z,5.75
2023-01-12T13:25:35.453Z,5.78
2023-01-12T13:28:32.287Z,5.81
2023-01-12T13:31:32.726Z,5.83
2023-01-12T13:34:35.451Z,5.87
2023-01-12T13:37:32.105Z,5.81
2023-01-12T13:40:32.465Z,5.84
2023-01-12T13:43:33.192Z,5.91
2023-01-12T13:46:41.356Z,5.86
2023-01-12T13:49:47.309Z,5.79
2023-01-12T13:52:44.378Z,5.73
2023-01-12T13:55:41.164Z,5.81
2023-01-12T13:58:41.221Z,5.86
2023-01-12T14:01:40.148Z,5.88
2023-01-12T14:04:47.929Z,5.79
2023-01-12T14:08:34.406Z,5.82
2023-01-12T14:11:46.571Z,5.85
2023-01-12T14:15:08.179Z,5.94
2023-01-12T14:18:19.736Z,5.91
2023-01-12T14:21:24.677Z,5.91
2023-01-12T14:24:24.841Z,5.91
2023-01-12T14:27:24.016Z,6.00
2023-01-12T14:30:23.506Z,5.93
2023-01-12T14:33:22.306Z,5.96
2023-01-12T14:36:33.436Z,5.93
2023-01-12T14:39:36.754Z,5.97
2023-01-12T14:42:52.537Z,5.96
2023-01-12T14:46:18.758Z,6.02
2023-01-12T14:49:28.802Z,5.96
2023-01-12T14:52:30.805Z,5.98
2023-01-12T14:55:45.961Z,6.09
2023-01-12T14:58:44.420Z,5.99
2023-01-12T15:01:41.933Z,5.99
2023-01-12T15:04:54.994Z,5.97
2023-01-12T15:08:03.939Z,6.12
2023-01-12T15:11:07.801Z,6.01
2023-01-12T15:14:06.485Z,6.04
2023-01-12T15:17:21.578Z,5.98
2023-01-12T15:20:36.783Z,6.07
2023-01-12T15:23:54.049Z,5.98
2023-01-12T15:26:58.848Z,6.07
2023-01-12T15:30:02.430Z,6.06
2023-01-12T15:32:59.613Z,6.04
2023-01-12T15:35:56.415Z,6.04
2023-01-12T15:38:53.186Z,6.06
2023-01-12T15:42:08.507Z,6.02
2023-01-12T15:45:35.478Z,6.04
2023-01-12T15:48:32.268Z,6.02
2023-01-12T15:51:29.008Z,6.02
2023-01-12T15:54:25.748Z,5.93
2023-01-12T15:57:23.346Z,5.95
2023-01-12T16:00:22.447Z,6.05
2023-01-12T16:03:48.289Z,6.09
2023-01-12T16:06:40.892Z,6.01
2023-01-12T16:09:37.683Z,6.04
2023-01-12T16:12:34.468Z,6.06
2023-01-12T16:15:31.594Z,6.05
2023-01-12T16:18:28.421Z,6.13
2023-01-12T16:21:26.269Z,6.09
2023-01-12T16:24:26.429Z,6.04
2023-01-12T16:27:25.301Z,6.10
2023-01-12T16:30:22.414Z,6.10
2023-01-12T16:33:19.429Z,6.09
2023-01-12T16:36:16.193Z,6.15
2023-01-12T16:39:12.967Z,6.14
2023-01-12T16:42:11.694Z,6.06
2023-01-12T16:45:09.353Z,6.03
2023-01-12T16:48:06.279Z,6.06
2023-01-12T16:51:03.055Z,5.98
2023-01-12T16:54:02.614Z,6.03
2023-01-12T16:56:59.466Z,6.07
2023-01-12T16:59:56.247Z,6.03
2023-01-12T17:02:53.168Z,5.98
2023-01-12T17:05:50.106Z,6.07
2023-01-12T17:08:47.100Z,6.01
2023-01-12T17:11:44.893Z,6.05
2023-01-12T17:14:41.792Z,6.05
2023-01-12T17:17:38.676Z,6.04
2023-01-12T17:20:35.513Z,6.13
2023-01-12T17:23:32.608Z,6.08
2023-01-12T17:26:29.374Z,6.10
2023-01-12T17:29:27.421Z,6.08
2023-01-12T17:32:25.190Z,6.08
2023-01-12T17:35:21.956Z,6.13
2023-01-12T17:38:18.766Z,6.19
2023-01-12T17:41:35.145Z,6.19
2023-01-12T17:44:31.972Z,6.25
2023-01-12T17:47:28.748Z,6.21
2023-01-12T17:50:26.073Z,6.18
2023-01-12T17:53:22.897Z,6.22
2023-01-12T17:56:19.855Z,6.26
2023-01-12T17:59:19.382Z,6.21
2023-01-12T18:02:18.060Z,6.24
2023-01-12T18:05:14.983Z,6.19
2023-01-12T18:08:12.631Z,6.21
2023-01-12T18:11:09.492Z,6.21
2023-01-12T18:14:06.607Z,6.16
2023-01-12T18:17:04.128Z,6.13
2023-01-12T18:20:04.197Z,6.09
2023-01-12T18:23:01.225Z,6.19
2023-01-12T18:26:13.608Z,6.19
2023-01-12T18:29:10.477Z,6.16
2023-01-12T18:32:07.367Z,6.21
2023-01-12T18:35:04.401Z,6.19
2023-01-12T18:38:01.227Z,6.16
2023-01-12T18:41:20.004Z,6.12
2023-01-12T18:44:17.207Z,6.17
2023-01-12T18:47:33.485Z,6.13
2023-01-12T18:50:49.505Z,6.17
2023-01-12T18:53:46.367Z,6.23
2023-01-12T18:56:47.159Z,6.23
2023-01-12T18:59:47.460Z,6.17
2023-01-12T19:02:44.615Z,6.11
2023-01-12T19:05:57.347Z,6.19
2023-01-12T19:09:13.632Z,6.10
2023-01-12T19:12:10.410Z,6.20
2023-01-12T19:15:27.499Z,6.12
2023-01-12T19:18:24.311Z,6.13
2023-01-12T19:21:39.529Z,6.14
2023-01-12T19:24:54.871Z,6.13
2023-01-12T19:28:09.860Z,6.18
2023-01-12T19:31:12.109Z,6.19
2023-01-12T19:34:08.931Z,6.24
2023-01-12T19:37:05.898Z,6.15
2023-01-12T19:40:18.891Z,6.16
2023-01-12T19:43:20.367Z,6.07
2023-01-12T19:46:17.138Z,6.15
2023-01-12T19:49:16.755Z,6.11
2023-01-12T19:52:13.546Z,6.11
2023-01-12T19:55:13.203Z,6.14
2023-01-12T19:58:10.431Z,6.21
2023-01-12T20:01:08.104Z,6.18
2023-01-12T20:04:04.937Z,6.15
2023-01-12T20:07:01.785Z,6.14
2023-01-12T20:10:01.218Z,6.08
2023-01-12T20:12:58.041Z,6.09
2023-01-12T20:15:56.707Z,6.05
2023-01-12T20:18:56.885Z,6.06
2023-01-12T20:21:54.416Z,6.06
2023-01-12T20:24:51.161Z,6.06
2023-01-12T20:27:49.172Z,6.09
2023-01-12T20:30:46.017Z,6.12
2023-01-12T20:33:43.213Z,6.07
2023-01-12T20:36:40.465Z,6.06
2023-01-12T20:39:37.293Z,6.14
2023-01-12T20:42:34.086Z,6.11
2023-01-12T20:45:30.890Z,6.14
2023-01-12T20:48:27.842Z,6.17
2023-01-12T20:51:25.171Z,6.21
2023-01-12T20:54:21.958Z,6.22
2023-01-12T20:57:19.448Z,6.13
2023-01-12T21:00:17.101Z,6.13
2023-01-12T21:03:13.963Z,6.11
2023-01-12T21:06:12.855Z,6.11
2023-01-12T21:09:09.662Z,6.18
2023-01-12T21:12:07.073Z,6.16
2023-01-12T21:15:04.326Z,6.16
2023-01-12T21:18:01.067Z,6.16
2023-01-12T21:20:57.839Z,6.16
2023-01-12T21:23:54.576Z,6.21
2023-01-12T21:26:51.313Z,6.14
2023-01-12T21:29:48.163Z,6.12
2023-01-12T21:32:44.928Z,6.12
2023-01-12T21:35:41.669Z,6.13
2023-01-12T21:38:38.766Z,6.07
2023-01-12T21:41:55.475Z,6.23
2023-01-12T21:44:52.223Z,6.21
2023-01-12T21:47:48.984Z,6.17
2023-01-12T21:50:45.756Z,6.22
2023-01-12T21:53:43.341Z,6.23
2023-01-12T21:56:40.084Z,6.24
2023-01-12T21:59:36.833Z,6.19
2023-01-12T22:02:36.327Z,6.21
2023-01-12T22:05:33.264Z,6.21
2023-01-12T22:08:30.096Z,6.14
2023-01-12T22:11:26.876Z,6.13
2023-01-12T22:14:23.640Z,6.17
2023-01-12T22:17:20.391Z,6.11
2023-01-12T22:20:17.473Z,6.09
2023-01-12T22:23:14.256Z,6.10
2023-01-12T22:26:13.072Z,6.16
2023-01-12T22:29:10.135Z,6.22
2023-01-12T22:32:08.666Z,6.23
2023-01-12T22:35:05.808Z,6.24
2023-01-12T22:38:02.754Z,6.19
2023-01-12T22:41:04.410Z,6.21
2023-01-12T22:44:01.178Z,6.19
2023-01-12T22:46:57.911Z,6.24
2023-01-12T22:49:54.670Z,6.21
2023-01-12T22:52:54.884Z,6.27
2023-01-12T22:55:52.202Z,6.22
2023-01-12T22:58:50.512Z,6.23
2023-01-12T23:01:47.404Z,6.25
2023-01-12T23:04:44.280Z,6.21
2023-01-12T23:07:41.154Z,6.20
2023-01-12T23:10:38.027Z,6.23
2023-01-12T23:13:36.060Z,6.14
2023-01-12T23:16:33.688Z,6.22
2023-01-12T23:19:30.681Z,6.24
2023-01-12T23:22:30.087Z,6.30
2023-01-12T23:25:27.099Z,6.33
2023-01-12T23:28:23.968Z,6.24
2023-01-12T23:31:21.918Z,6.25
2023-01-12T23:34:18.843Z,6.26
2023-01-12T23:37:15.711Z,6.20
2023-01-12T23:40:12.703Z,6.23
2023-01-12T23:43:09.599Z,6.17
2023-01-12T23:46:07.293Z,6.24
2023-01-12T23:49:05.051Z,6.19
2023-01-12T23:52:02.128Z,6.27
2023-01-12T23:54:59.019Z,6.21
2023-01-12T23:57:56.031Z,6.26
